createdAt,value
2023-02-16T00:02:12.190Z,81.65
2023-02-16T00:04:38.817Z,81.48
2023-02-16T00:07:05.396Z,81.64
2023-02-16T00:09:31.948Z,81.68
2023-02-16T00:12:16.978Z,81.35
2023-02-16T00:14:43.556Z,81.84
2023-02-16T00:17:11.433Z,81.81
2023-02-16T00:19:42.696Z,81.69
2023-02-16T00:22:11.513Z,81.56
2023-02-16T00:24:38.120Z,81.73
2023-02-16T00:27:13.091Z,82.11
2023-02-16T00:29:44.790Z,81.70
2023-02-16T00:32:13.721Z,82.14
2023-02-16T00:34:43.563Z,82.33
2023-02-16T00:37:12.867Z,81.91
2023-02-16T00:39:41.131Z,81.83
2023-02-16T00:42:20.483Z,82.37
2023-02-16T00:44:49.382Z,82.42
2023-02-16T00:47:21.987Z,82.86
2023-02-16T00:49:51.610Z,82.53
2023-02-16T00:52:42.707Z,82.64
2023-02-16T00:55:12.934Z,82.80
2023-02-16T00:57:44.255Z,82.39
2023-02-16T01:00:13.772Z,82.89
2023-02-16T01:02:44.345Z,82.64
2023-02-16T01:05:11.452Z,82.91
2023-02-16T01:07:56.793Z,82.96
2023-02-16T01:10:45.896Z,82.57
2023-02-16T01:13:12.911Z,82.69
2023-02-16T01:15:45.407Z,82.91
2023-02-16T01:18:16.980Z,82.80
2023-02-16T01:20:44.631Z,82.59
2023-02-16T01:23:11.620Z,82.87
2023-02-16T01:25:38.570Z,82.70
2023-02-16T01:28:18.699Z,82.29
2023-02-16T01:30:45.293Z,82.54
2023-02-16T01:33:11.902Z,82.22
2023-02-16T01:35:38.817Z,82.79
2023-02-16T01:38:05.440Z,82.83
2023-02-16T01:40:37.428Z,82.79
2023-02-16T01:43:18.957Z,82.42
2023-02-16T01:45:51.229Z,82.36
2023-02-16T01:48:30.225Z,83.12
2023-02-16T01:51:22.099Z,82.42
2023-02-16T01:54:07.508Z,82.87
2023-02-16T01:56:52.716Z,82.44
2023-02-16T01:59:41.594Z,82.77
2023-02-16T02:02:26.108Z,82.71
2023-02-16T02:05:22.192Z,83.03
2023-02-16T02:07:58.393Z,82.94
2023-02-16T02:10:54.364Z,82.84
2023-02-16T02:13:58.387Z,83.07
2023-02-16T02:16:27.802Z,83.26
2023-02-16T02:18:54.634Z,83.11
2023-02-16T02:22:04.907Z,83.40
2023-02-16T02:24:58.833Z,83.03
2023-02-16T02:27:37.746Z,83.76
2023-02-16T02:30:13.341Z,83.38
2023-02-16T02:32:50.066Z,83.12
2023-02-16T02:35:41.024Z,83.09
2023-02-16T02:38:25.570Z,83.04
2023-02-16T02:41:49.253Z,83.15
2023-02-16T02:44:20.208Z,82.51
2023-02-16T02:46:47.278Z,82.98
2023-02-16T02:49:13.948Z,82.74
2023-02-16T02:51:42.674Z,82.65
2023-02-16T02:54:32.870Z,83.19
2023-02-16T02:57:33.097Z,83.79
2023-02-16T03:00:29.662Z,83.43
2023-02-16T03:03:03.703Z,83.50
2023-02-16T03:05:36.270Z,83.78
2023-02-16T03:08:14.126Z,83.71
2023-02-16T03:11:06.900Z,83.53
2023-02-16T03:13:49.281Z,84.02
2023-02-16T03:16:28.019Z,84.12
2023-02-16T03:19:17.228Z,83.85
2023-02-16T03:22:03.023Z,84.16
2023-02-16T03:24:51.426Z,84.48
2023-02-16T03:27:42.665Z,84.39
2023-02-16T03:30:11.141Z,84.22
2023-02-16T03:32:38.890Z,84.41
2023-02-16T03:35:06.951Z,84.62
2023-02-16T03:37:33.823Z,84.65
2023-02-16T03:40:21.133Z,84.74
2023-02-16T03:42:51.990Z,84.31
2023-02-16T03:45:23.397Z,84.33
2023-02-16T03:47:52.735Z,84.39
2023-02-16T03:50:19.329Z,84.85
2023-02-16T03:52:46.026Z,84.13
2023-02-16T03:55:15.113Z,84.06
2023-02-16T03:57:41.639Z,84.75
2023-02-16T04:00:08.918Z,84.15
2023-02-16T04:02:40.219Z,84.24
2023-02-16T04:05:07.048Z,84.29
2023-02-16T04:07:33.630Z,84.09
2023-02-16T04:10:00.180Z,84.16
2023-02-16T04:12:38.832Z,83.99
2023-02-16T04:15:08.991Z,83.90
2023-02-16T04:17:35.751Z,83.48
2023-02-16T04:20:03.311Z,83.48
2023-02-16T04:22:32.168Z,83.89
2023-02-16T04:24:58.701Z,83.32
2023-02-16T04:27:25.423Z,83.56
2023-02-16T04:29:52.103Z,83.61
2023-02-16T04:32:20.968Z,83.69
2023-02-16T04:34:49.653Z,83.42
2023-02-16T04:37:16.380Z,83.17
2023-02-16T04:39:45.144Z,83.32
2023-02-16T04:42:11.747Z,83.16
2023-02-16T04:44:40.948Z,83.63
2023-02-16T04:47:07.453Z,83.52
2023-02-16T04:49:36.359Z,83.51
2023-02-16T04:52:04.095Z,83.04
2023-02-16T04:54:31.935Z,83.12
2023-02-16T04:56:58.808Z,83.51
2023-02-16T04:59:25.984Z,83.11
2023-02-16T05:01:55.050Z,83.36
2023-02-16T05:04:21.827Z,83.20
2023-02-16T05:06:51.103Z,83.14
2023-02-16T05:09:17.713Z,82.88
2023-02-16T05:12:03.067Z,83.39
2023-02-16T05:14:43.334Z,83.15
2023-02-16T05:17:11.076Z,83.29
2023-02-16T05:19:41.456Z,83.48
2023-02-16T05:22:08.458Z,83.49
2023-02-16T05:24:36.060Z,83.33
2023-02-16T05:27:04.597Z,82.98
2023-02-16T05:29:31.445Z,83.06
2023-02-16T05:31:58.474Z,83.11
2023-02-16T05:34:25.593Z,83.44
2023-02-16T05:36:52.734Z,83.44
2023-02-16T05:39:19.516Z,83.50
2023-02-16T05:41:46.165Z,83.49
2023-02-16T05:44:12.952Z,83.29
2023-02-16T05:46:43.150Z,83.29
2023-02-16T05:49:10.371Z,83.18
2023-02-16T05:51:37.685Z,83.34
2023-02-16T05:54:05.102Z,83.09
2023-02-16T05:56:34.274Z,83.15
2023-02-16T05:59:03.611Z,83.28
2023-02-16T06:01:30.181Z,83.39
2023-02-16T06:03:56.887Z,83.47
2023-02-16T06:06:23.520Z,83.32
2023-02-16T06:08:50.133Z,83.34
2023-02-16T06:11:39.537Z,83.58
2023-02-16T06:14:15.711Z,83.60
2023-02-16T06:16:47.324Z,83.39
2023-02-16T06:19:16.342Z,83.59
2023-02-16T06:21:43.202Z,83.52
2023-02-16T06:24:12.104Z,83.59
2023-02-16T06:26:38.990Z,83.28
2023-02-16T06:29:05.806Z,83.57
2023-02-16T06:31:35.825Z,83.59
2023-02-16T06:34:03.797Z,83.33
2023-02-16T06:36:30.780Z,83.69
2023-02-16T06:38:57.464Z,83.63
2023-02-16T06:41:35.525Z,83.47
2023-02-16T06:44:07.737Z,83.62
2023-02-16T06:46:34.882Z,83.69
2023-02-16T06:49:01.849Z,83.67
2023-02-16T06:51:29.127Z,83.86
2023-02-16T06:53:55.744Z,83.86
2023-02-16T06:56:24.679Z,83.83
2023-02-16T06:58:51.797Z,83.54
2023-02-16T07:01:23.044Z,83.74
2023-02-16T07:03:53.538Z,83.92
2023-02-16T07:06:20.825Z,83.77
2023-02-16T07:08:47.649Z,83.54
2023-02-16T07:11:14.883Z,84.43
2023-02-16T07:13:41.557Z,83.73
2023-02-16T07:16:08.190Z,83.34
2023-02-16T07:18:35.242Z,83.56
2023-02-16T07:21:02.195Z,83.41
2023-02-16T07:23:29.091Z,83.45
2023-02-16T07:25:55.684Z,83.31
2023-02-16T07:28:22.327Z,83.27
2023-02-16T07:30:48.934Z,83.01
2023-02-16T07:33:15.992Z,83.24
2023-02-16T07:35:43.616Z,83.07
2023-02-16T07:38:10.453Z,82.83
2023-02-16T07:40:37.048Z,83.05
2023-02-16T07:43:05.749Z,82.90
2023-02-16T07:45:33.056Z,82.89
2023-02-16T07:48:00.485Z,82.79
2023-02-16T07:50:27.577Z,82.87
2023-02-16T07:52:54.195Z,82.94
2023-02-16T07:55:20.785Z,82.29
2023-02-16T07:57:49.507Z,82.77
2023-02-16T08:00:18.916Z,82.69
2023-02-16T08:02:45.594Z,82.39
2023-02-16T08:05:12.157Z,82.78
2023-02-16T08:07:41.927Z,82.77
2023-02-16T08:10:13.022Z,82.80
2023-02-16T08:12:41.724Z,82.73
2023-02-16T08:15:09.615Z,82.61
2023-02-16T08:17:36.523Z,82.57
2023-02-16T08:20:04.940Z,82.62
2023-02-16T08:22:32.846Z,82.46
2023-02-16T08:25:01.915Z,82.53
2023-02-16T08:27:28.517Z,82.51
2023-02-16T08:29:55.461Z,82.44
2023-02-16T08:32:22.247Z,82.17
2023-02-16T08:34:49.064Z,82.32
2023-02-16T08:37:15.799Z,82.17
2023-02-16T08:39:42.850Z,82.16
2023-02-16T08:42:13.566Z,82.13
2023-02-16T08:44:42.446Z,81.75
2023-02-16T08:47:10.974Z,81.73
2023-02-16T08:49:39.414Z,81.49
2023-02-16T08:52:06.443Z,81.73
2023-02-16T08:54:33.508Z,81.71
2023-02-16T08:57:03.670Z,81.83
2023-02-16T08:59:31.361Z,81.78
2023-02-16T09:01:59.214Z,81.93
2023-02-16T09:04:28.989Z,82.01
2023-02-16T09:06:56.555Z,81.76
2023-02-16T09:09:23.521Z,81.50
2023-02-16T09:11:50.413Z,81.73
2023-02-16T09:14:21.661Z,81.29
2023-02-16T09:16:49.010Z,81.57
2023-02-16T09:19:18.406Z,81.37
2023-02-16T09:21:47.116Z,81.65
2023-02-16T09:24:13.964Z,81.90
2023-02-16T09:26:42.950Z,81.52
2023-02-16T09:29:12.475Z,81.78
2023-02-16T09:31:40.027Z,81.46
2023-02-16T09:34:27.937Z,81.60
2023-02-16T09:36:54.855Z,81.82
2023-02-16T09:39:21.787Z,81.55
2023-02-16T09:42:06.363Z,81.96
2023-02-16T09:44:45.182Z,81.81
2023-02-16T09:47:22.521Z,81.98
2023-02-16T09:49:50.269Z,82.28
2023-02-16T09:52:16.893Z,82.19
2023-02-16T09:54:51.341Z,82.10
2023-02-16T09:57:24.836Z,82.72
2023-02-16T10:00:13.157Z,82.40
2023-02-16T10:02:49.178Z,82.41
2023-02-16T10:05:52.030Z,82.85
2023-02-16T10:08:34.444Z,82.62
2023-02-16T10:11:38.256Z,82.91
2023-02-16T10:14:30.874Z,82.85
2023-02-16T10:17:18.323Z,83.21
2023-02-16T10:19:56.734Z,83.30
2023-02-16T10:22:44.745Z,83.44
2023-02-16T10:25:17.080Z,83.63
2023-02-16T10:27:47.954Z,83.75
2023-02-16T10:30:16.651Z,83.92
2023-02-16T10:32:56.462Z,83.83
2023-02-16T10:35:30.230Z,83.75
2023-02-16T10:38:21.265Z,83.81
2023-02-16T10:41:04.350Z,84.04
2023-02-16T10:43:39.581Z,84.25
2023-02-16T10:46:13.612Z,84.16
2023-02-16T10:48:40.217Z,84.07
2023-02-16T10:51:09.414Z,84.29
2023-02-16T10:53:59.427Z,84.32
2023-02-16T10:56:44.717Z,83.87
2023-02-16T10:59:18.816Z,83.92
2023-02-16T11:01:59.725Z,84.68
2023-02-16T11:04:33.290Z,84.36
2023-02-16T11:07:24.083Z,84.82
2023-02-16T11:09:53.933Z,84.75
2023-02-16T11:12:33.000Z,85.02
2023-02-16T11:15:18.869Z,84.59
2023-02-16T11:17:48.432Z,84.69
2023-02-16T11:20:45.079Z,84.36
2023-02-16T11:23:17.780Z,84.10
2023-02-16T11:25:57.401Z,83.78
2023-02-16T11:28:48.013Z,84.18
2023-02-16T11:31:32.958Z,83.74
2023-02-16T11:34:06.144Z,83.89
2023-02-16T11:36:37.682Z,83.50
2023-02-16T11:39:25.578Z,83.30
2023-02-16T11:42:01.268Z,83.28
2023-02-16T11:44:33.315Z,83.31
2023-02-16T11:47:12.613Z,83.01
2023-02-16T11:49:41.889Z,83.18
2023-02-16T11:52:23.932Z,83.20
2023-02-16T11:54:58.272Z,83.17
2023-02-16T11:57:28.522Z,82.82
2023-02-16T12:00:01.944Z,82.65
2023-02-16T12:02:50.385Z,82.54
2023-02-16T12:05:35.971Z,82.48
2023-02-16T12:08:25.643Z,82.13
2023-02-16T12:11:30.729Z,82.23
2023-02-16T12:14:29.308Z,81.62
2023-02-16T12:17:13.156Z,81.60
2023-02-16T12:19:41.836Z,81.60
2023-02-16T12:22:16.667Z,81.85
2023-02-16T12:24:56.197Z,81.58
2023-02-16T12:27:39.306Z,81.55
2023-02-16T12:30:12.091Z,81.46
2023-02-16T12:33:26.327Z,81.53
2023-02-16T12:36:21.834Z,80.95
2023-02-16T12:38:59.884Z,80.71
2023-02-16T12:42:12.077Z,80.69
2023-02-16T12:44:55.407Z,80.57
2023-02-16T12:47:54.663Z,80.83
2023-02-16T12:50:31.149Z,80.94
2023-02-16T12:53:27.661Z,81.38
2023-02-16T12:56:02.379Z,80.98
2023-02-16T12:58:36.541Z,81.11
2023-02-16T13:01:12.261Z,80.88
2023-02-16T13:03:40.541Z,80.76
2023-02-16T13:06:22.430Z,80.54
2023-02-16T13:09:20.068Z,80.50
2023-02-16T13:12:02.536Z,79.84
2023-02-16T13:14:40.159Z,79.28
2023-02-16T13:17:21.405Z,79.17
2023-02-16T13:19:52.037Z,78.93
2023-02-16T13:22:51.686Z,79.52
2023-02-16T13:25:43.104Z,79.19
2023-02-16T13:28:09.793Z,79.24
2023-02-16T13:30:59.805Z,79.16
2023-02-16T13:33:58.704Z,79.28
2023-02-16T13:36:41.187Z,79.04
2023-02-16T13:39:18.956Z,78.91
2023-02-16T13:41:57.823Z,78.90
2023-02-16T13:44:34.326Z,78.70
2023-02-16T13:47:05.073Z,78.40
2023-02-16T13:49:36.273Z,78.42
2023-02-16T13:52:08.470Z,78.35
2023-02-16T13:54:39.987Z,78.43
2023-02-16T13:57:11.908Z,78.82
2023-02-16T13:59:40.982Z,78.97
2023-02-16T14:02:15.086Z,79.48
2023-02-16T14:04:50.620Z,79.24
2023-02-16T14:07:31.286Z,79.30
2023-02-16T14:10:00.472Z,79.50
2023-02-16T14:12:36.170Z,79.08
2023-02-16T14:15:08.530Z,79.41
2023-02-16T14:17:35.880Z,79.46
2023-02-16T14:20:15.802Z,79.50
2023-02-16T14:22:57.581Z,79.21
2023-02-16T14:25:24.175Z,79.37
2023-02-16T14:27:56.448Z,79.41
2023-02-16T14:30:32.430Z,79.27
2023-02-16T14:33:17.174Z,79.36
2023-02-16T14:35:58.378Z,79.33
2023-02-16T14:38:51.234Z,79.51
2023-02-16T14:41:23.901Z,79.37
2023-02-16T14:43:56.256Z,79.25
2023-02-16T14:46:44.312Z,79.38
2023-02-16T14:49:45.329Z,79.49
2023-02-16T14:52:37.200Z,79.53
2023-02-16T14:55:46.715Z,79.56
2023-02-16T14:58:34.715Z,79.36
2023-02-16T15:01:12.651Z,79.34
2023-02-16T15:03:45.514Z,79.21
2023-02-16T15:06:27.920Z,79.48
2023-02-16T15:08:59.289Z,79.35
2023-02-16T15:11:57.615Z,79.35
2023-02-16T15:14:29.567Z,79.09
2023-02-16T15:16:58.977Z,79.34
2023-02-16T15:19:31.145Z,79.32
2023-02-16T15:22:22.203Z,79.87
2023-02-16T15:24:56.210Z,79.60
2023-02-16T15:27:23.735Z,79.82
2023-02-16T15:30:23.296Z,79.80
2023-02-16T15:32:56.399Z,79.62
2023-02-16T15:35:27.565Z,79.52
2023-02-16T15:38:05.108Z,79.81
2023-02-16T15:40:35.308Z,80.28
2023-02-16T15:43:30.874Z,80.58
2023-02-16T15:45:58.928Z,80.29
2023-02-16T15:48:29.310Z,80.58
2023-02-16T15:51:15.594Z,80.49
2023-02-16T15:53:55.963Z,80.61
2023-02-16T15:56:32.730Z,80.66
2023-02-16T15:59:20.909Z,80.67
2023-02-16T16:01:47.942Z,81.16
2023-02-16T16:04:25.259Z,81.14
2023-02-16T16:06:54.679Z,81.42
2023-02-16T16:09:30.890Z,81.73
2023-02-16T16:12:00.237Z,81.86
2023-02-16T16:14:28.414Z,82.19
2023-02-16T16:16:58.065Z,82.32
2023-02-16T16:19:38.334Z,82.91
2023-02-16T16:22:30.283Z,83.28
2023-02-16T16:24:56.921Z,83.73
2023-02-16T16:27:38.350Z,84.35
2023-02-16T16:30:45.408Z,84.34
2023-02-16T16:33:14.048Z,84.57
2023-02-16T16:35:52.076Z,85.26
2023-02-16T16:38:26.589Z,85.66
2023-02-16T16:40:59.840Z,86.14
2023-02-16T16:43:37.668Z,86.17
2023-02-16T16:46:07.627Z,86.19
2023-02-16T16:48:37.246Z,86.39
2023-02-16T16:51:21.153Z,86.65
2023-02-16T16:53:50.854Z,86.66
2023-02-16T16:56:18.773Z,87.19
2023-02-16T16:58:52.422Z,87.40
2023-02-16T17:01:20.491Z,87.42
2023-02-16T17:03:47.243Z,87.71
2023-02-16T17:06:17.712Z,88.17
2023-02-16T17:08:45.325Z,88.02
2023-02-16T17:11:24.221Z,88.28
2023-02-16T17:13:52.071Z,88.27
2023-02-16T17:16:28.126Z,88.83
2023-02-16T17:18:55.002Z,88.78
2023-02-16T17:21:21.742Z,88.76
2023-02-16T17:23:53.200Z,88.87
2023-02-16T17:26:20.662Z,88.96
2023-02-16T17:28:47.349Z,89.28
2023-02-16T17:31:13.995Z,89.21
2023-02-16T17:33:44.890Z,89.19
2023-02-16T17:36:14.502Z,89.85
2023-02-16T17:38:43.279Z,89.51
2023-02-16T17:41:28.360Z,89.86
2023-02-16T17:43:57.925Z,89.95
2023-02-16T17:46:25.562Z,90.25
2023-02-16T17:48:55.168Z,89.92
2023-02-16T17:51:24.177Z,91.72
2023-02-16T17:53:51.244Z,91.57
2023-02-16T17:56:20.580Z,91.40
2023-02-16T17:58:47.301Z,91.74
2023-02-16T18:01:15.732Z,91.25
2023-02-16T18:03:44.865Z,90.92
2023-02-16T18:06:17.361Z,91.09
2023-02-16T18:08:44.524Z,90.32
2023-02-16T18:11:13.115Z,90.44
2023-02-16T18:13:39.976Z,90.10
2023-02-16T18:16:07.917Z,90.30
2023-02-16T18:18:36.878Z,90.31
2023-02-16T18:21:03.697Z,90.40
2023-02-16T18:23:30.656Z,90.70
2023-02-16T18:26:00.108Z,90.36
2023-02-16T18:28:30.778Z,90.37
2023-02-16T18:31:00.258Z,90.74
2023-02-16T18:33:27.691Z,90.68
2023-02-16T18:36:00.234Z,90.90
2023-02-16T18:38:27.181Z,90.73
2023-02-16T18:40:55.320Z,91.03
2023-02-16T18:43:22.938Z,90.94
2023-02-16T18:45:53.211Z,90.95
2023-02-16T18:48:22.889Z,91.38
2023-02-16T18:50:51.853Z,91.47
2023-02-16T18:53:18.432Z,91.39
2023-02-16T18:55:45.054Z,91.32
2023-02-16T18:58:15.615Z,91.65
2023-02-16T19:00:42.187Z,91.73
2023-02-16T19:03:09.241Z,91.79
2023-02-16T19:05:38.370Z,92.24
2023-02-16T19:08:06.159Z,91.77
2023-02-16T19:10:35.100Z,92.22
2023-02-16T19:13:05.189Z,92.48
2023-02-16T19:15:33.265Z,92.35
2023-02-16T19:18:02.374Z,92.82
2023-02-16T19:20:31.748Z,92.73
2023-02-16T19:22:58.312Z,92.80
2023-02-16T19:25:25.181Z,92.85
2023-02-16T19:27:51.824Z,92.80
2023-02-16T19:30:22.042Z,92.96
2023-02-16T19:32:50.855Z,93.31
2023-02-16T19:35:19.715Z,93.14
2023-02-16T19:37:46.854Z,93.13
2023-02-16T19:40:13.890Z,93.63
2023-02-16T19:42:40.572Z,93.91
2023-02-16T19:45:07.570Z,93.27
2023-02-16T19:47:34.329Z,93.58
2023-02-16T19:50:03.968Z,93.48
2023-02-16T19:52:30.639Z,93.33
2023-02-16T19:54:57.200Z,93.63
2023-02-16T19:57:23.800Z,93.82
2023-02-16T19:59:52.585Z,93.83
2023-02-16T20:02:19.291Z,94.03
2023-02-16T20:04:45.934Z,94.14
2023-02-16T20:07:12.630Z,94.30
2023-02-16T20:09:41.738Z,94.05
2023-02-16T20:12:08.769Z,94.35
2023-02-16T20:14:35.592Z,94.24
2023-02-16T20:17:04.709Z,94.79
2023-02-16T20:19:31.275Z,94.22
2023-02-16T20:22:00.255Z,94.63
2023-02-16T20:24:29.426Z,94.54
2023-02-16T20:26:56.014Z,94.68
2023-02-16T20:29:22.765Z,94.46
2023-02-16T20:31:55.988Z,94.85
2023-02-16T20:34:28.794Z,94.66
2023-02-16T20:36:58.554Z,94.68
2023-02-16T20:39:25.400Z,95.17
2023-02-16T20:41:54.250Z,95.17
2023-02-16T20:44:22.559Z,95.06
2023-02-16T20:46:49.521Z,95.03
2023-02-16T20:49:18.439Z,95.16
2023-02-16T20:51:45.057Z,95.11
2023-02-16T20:54:12.560Z,94.92
2023-02-16T20:56:39.331Z,95.62
2023-02-16T20:59:05.977Z,95.42
2023-02-16T21:01:39.635Z,95.77
2023-02-16T21:04:08.210Z,95.51
2023-02-16T21:06:36.018Z,95.18
2023-02-16T21:09:04.115Z,95.48
2023-02-16T21:11:30.880Z,96.04
2023-02-16T21:13:58.348Z,95.24
2023-02-16T21:16:25.467Z,95.52
2023-02-16T21:18:52.171Z,95.49
2023-02-16T21:21:18.762Z,95.29
2023-02-16T21:23:52.925Z,95.93
2023-02-16T21:26:21.682Z,95.80
2023-02-16T21:28:48.722Z,96.05
2023-02-16T21:31:20.022Z,95.58
2023-02-16T21:33:47.467Z,95.66
2023-02-16T21:36:21.448Z,95.83
2023-02-16T21:38:48.919Z,95.93
2023-02-16T21:41:25.492Z,96.24
2023-02-16T21:44:03.273Z,95.68
2023-02-16T21:46:33.256Z,96.19
2023-02-16T21:49:00.264Z,96.15
2023-02-16T21:51:29.814Z,96.17
2023-02-16T21:53:57.843Z,96.37
2023-02-16T21:56:33.662Z,96.50
2023-02-16T21:59:00.870Z,96.43
2023-02-16T22:01:31.851Z,96.63
2023-02-16T22:04:00.459Z,96.75
2023-02-16T22:06:33.034Z,96.63
2023-02-16T22:09:00.629Z,96.98
2023-02-16T22:11:27.469Z,96.80
2023-02-16T22:13:58.299Z,97.11
2023-02-16T22:16:26.427Z,97.19
2023-02-16T22:18:57.718Z,97.05
2023-02-16T22:21:24.810Z,97.09
2023-02-16T22:23:51.368Z,97.20
2023-02-16T22:26:36.188Z,97.30
2023-02-16T22:29:06.796Z,97.38
2023-02-16T22:31:34.049Z,97.25
2023-02-16T22:34:03.074Z,97.15
2023-02-16T22:36:32.018Z,97.15
2023-02-16T22:38:58.601Z,97.30
2023-02-16T22:41:28.276Z,97.41
2023-02-16T22:43:56.057Z,97.23
2023-02-16T22:46:24.187Z,97.21
2023-02-16T22:48:52.140Z,96.99
2023-02-16T22:51:20.996Z,97.38
2023-02-16T22:53:49.881Z,97.44
2023-02-16T22:56:18.238Z,97.21
2023-02-16T22:58:45.922Z,97.05
2023-02-16T23:01:15.493Z,97.42
2023-02-16T23:03:44.595Z,97.03
2023-02-16T23:06:17.044Z,97.13
2023-02-16T23:08:50.852Z,97.29
2023-02-16T23:11:17.459Z,97.29
2023-02-16T23:13:44.191Z,97.60
2023-02-16T23:16:17.378Z,97.46
2023-02-16T23:18:44.392Z,97.52
2023-02-16T23:21:21.257Z,97.56
2023-02-16T23:23:49.214Z,97.89
2023-02-16T23:26:16.708Z,97.53
2023-02-16T23:28:49.257Z,97.71
2023-02-16T23:31:16.077Z,97.66
2023-02-16T23:33:47.374Z,97.68
2023-02-16T23:36:14.267Z,97.79
2023-02-16T23:38:40.944Z,97.82
2023-02-16T23:41:10.946Z,98.38
2023-02-16T23:43:43.143Z,98.04
2023-02-16T23:46:10.990Z,98.01
2023-02-16T23:48:38.522Z,98.08
2023-02-16T23:51:05.436Z,98.35
2023-02-16T23:53:32.399Z,98.15
2023-02-16T23:56:00.936Z,98.31
2023-02-16T23:58:33.319Z,98.51
